createdAt,value
2019-05-06T00:00:34.575Z,8.30
2019-05-06T00:03:05.026Z,8.40
2019-05-06T00:05:34.736Z,8.40
2019-05-06T00:08:04.562Z,8.40
2019-05-06T00:10:35.973Z,8.40
2019-05-06T00:13:05.524Z,8.50
2019-05-06T00:15:35.544Z,8.60
2019-05-06T00:18:05.093Z,8.60
2019-05-06T00:20:35.438Z,8.70
2019-05-06T00:23:09.551Z,8.50
2019-05-06T00:25:40.781Z,8.30
2019-05-06T00:28:24.421Z,8.30
2019-05-06T00:31:09.524Z,8.20
2019-05-06T00:33:27.055Z,8.20
2019-05-06T00:35:56.625Z,8.10
2019-05-06T00:38:26.178Z,8.10
2019-05-06T00:41:04.018Z,8.10
2019-05-06T00:43:34.541Z,8.20
2019-05-06T00:46:04.774Z,8.20
2019-05-06T00:48:34.648Z,8.20
2019-05-06T00:51:04.637Z,8.20
2019-05-06T00:53:36.114Z,8.20
2019-05-06T00:56:05.724Z,8.10
2019-05-06T00:58:35.242Z,7.80
2019-05-06T01:01:05.078Z,7.60
2019-05-06T01:03:34.897Z,7.60
2019-05-06T01:06:05.206Z,7.90
2019-05-06T01:08:35.066Z,8.10
2019-05-06T01:11:07.288Z,7.90
2019-05-06T01:13:50.665Z,7.80
2019-05-06T01:16:21.211Z,8.00
2019-05-06T01:18:50.766Z,8.00
2019-05-06T01:21:20.262Z,8.20
2019-05-06T01:23:49.817Z,8.20
2019-05-06T01:26:19.693Z,8.10
2019-05-06T01:28:49.325Z,8.10
2019-05-06T01:31:18.901Z,8.30
2019-05-06T01:33:48.456Z,8.40
2019-05-06T01:36:18.022Z,8.40
2019-05-06T01:38:53.558Z,8.40
2019-05-06T01:41:41.400Z,8.40
2019-05-06T01:44:10.876Z,8.40
2019-05-06T01:46:40.440Z,8.30
2019-05-06T01:49:09.926Z,8.30
2019-05-06T01:51:39.505Z,8.30
2019-05-06T01:54:09.060Z,8.40
2019-05-06T01:56:38.641Z,8.30
2019-05-06T01:59:08.245Z,8.30
2019-05-06T02:01:37.813Z,8.40
2019-05-06T02:04:07.366Z,8.50
2019-05-06T02:06:36.930Z,8.60
2019-05-06T02:09:10.930Z,8.60
2019-05-06T02:11:40.492Z,8.60
2019-05-06T02:14:10.050Z,8.70
2019-05-06T02:16:39.616Z,8.70
2019-05-06T02:19:09.177Z,8.80
2019-05-06T02:21:43.816Z,8.80
2019-05-06T02:24:17.968Z,8.70
2019-05-06T02:26:47.539Z,8.70
2019-05-06T02:29:18.729Z,8.50
2019-05-06T02:32:17.449Z,8.60
2019-05-06T02:34:36.512Z,8.70
2019-05-06T02:37:10.602Z,8.70
2019-05-06T02:39:43.590Z,8.80
2019-05-06T02:42:13.092Z,8.70
2019-05-06T02:44:44.179Z,8.60
2019-05-06T02:47:23.051Z,8.50
2019-05-06T02:49:54.595Z,8.60
2019-05-06T02:52:24.165Z,8.70
2019-05-06T02:54:53.893Z,8.80
2019-05-06T02:57:24.056Z,8.80
2019-05-06T02:59:55.417Z,8.80
2019-05-06T03:02:39.079Z,8.80
2019-05-06T03:04:56.257Z,8.80
2019-05-06T03:07:25.911Z,8.80
2019-05-06T03:09:55.463Z,8.80
2019-05-06T03:12:25.034Z,8.70
2019-05-06T03:14:54.589Z,8.80
2019-05-06T03:17:24.154Z,8.80
2019-05-06T03:19:55.351Z,8.80
2019-05-06T03:22:35.726Z,8.80
2019-05-06T03:25:07.860Z,8.70
2019-05-06T03:27:37.504Z,8.70
2019-05-06T03:30:10.077Z,8.50
2019-05-06T03:33:14.323Z,8.50
2019-05-06T03:35:31.108Z,8.50
2019-05-06T03:37:44.075Z,8.60
2019-05-06T03:40:13.941Z,8.70
2019-05-06T03:42:43.650Z,8.60
2019-05-06T03:45:17.642Z,8.60
2019-05-06T03:47:54.279Z,8.70
2019-05-06T03:50:23.955Z,8.80
2019-05-06T03:52:56.481Z,8.70
2019-05-06T03:55:26.978Z,8.80
2019-05-06T03:57:57.182Z,8.80
2019-05-06T04:00:26.750Z,8.80
2019-05-06T04:02:56.383Z,8.80
2019-05-06T04:05:25.953Z,8.80
2019-05-06T04:07:55.955Z,8.80
2019-05-06T04:10:25.517Z,8.80
2019-05-06T04:12:55.313Z,8.80
2019-05-06T04:15:26.665Z,8.80
2019-05-06T04:17:58.383Z,8.80
2019-05-06T04:20:30.223Z,8.80
2019-05-06T04:23:06.027Z,8.80
2019-05-06T04:25:46.798Z,8.60
2019-05-06T04:28:23.569Z,8.60
2019-05-06T04:30:54.556Z,8.60
2019-05-06T04:33:23.735Z,8.50
2019-05-06T04:35:54.267Z,8.40
2019-05-06T04:38:29.344Z,8.50
2019-05-06T04:40:59.399Z,8.70
2019-05-06T04:43:28.968Z,8.70
2019-05-06T04:45:59.178Z,8.70
2019-05-06T04:48:28.805Z,8.70
2019-05-06T04:50:58.367Z,8.80
2019-05-06T04:53:27.939Z,8.70
2019-05-06T04:55:57.552Z,8.70
2019-05-06T04:58:27.569Z,8.60
2019-05-06T05:00:57.124Z,8.60
2019-05-06T05:03:26.836Z,8.50
2019-05-06T05:05:56.390Z,8.50
2019-05-06T05:08:38.310Z,8.50
2019-05-06T05:11:12.803Z,8.60
2019-05-06T05:13:49.465Z,8.50
2019-05-06T05:16:37.088Z,8.50
2019-05-06T05:19:08.292Z,8.60
2019-05-06T05:21:37.939Z,8.80
2019-05-06T05:24:07.643Z,8.80
2019-05-06T05:26:37.895Z,8.90
2019-05-06T05:29:07.461Z,8.80
2019-05-06T05:31:37.284Z,8.70
2019-05-06T05:34:06.905Z,8.50
2019-05-06T05:36:36.558Z,8.40
2019-05-06T05:39:07.717Z,8.30
2019-05-06T05:41:37.755Z,8.40
2019-05-06T05:44:12.041Z,8.40
2019-05-06T05:46:43.847Z,8.40
2019-05-06T05:49:24.575Z,8.50
2019-05-06T05:51:54.213Z,8.50
2019-05-06T05:54:24.646Z,8.60
2019-05-06T05:56:54.313Z,8.40
2019-05-06T05:59:24.091Z,8.50
2019-05-06T06:01:53.806Z,8.60
2019-05-06T06:04:23.439Z,8.60
2019-05-06T06:06:53.023Z,8.70
2019-05-06T06:09:24.526Z,8.80
2019-05-06T06:11:56.180Z,8.90
2019-05-06T06:14:30.218Z,8.90
2019-05-06T06:17:12.848Z,8.90
2019-05-06T06:19:58.849Z,9.00
2019-05-06T06:22:30.166Z,8.80
2019-05-06T06:24:59.975Z,9.00
2019-05-06T06:27:33.180Z,9.10
2019-05-06T06:30:02.911Z,9.00
2019-05-06T06:32:33.040Z,9.20
2019-05-06T06:35:11.050Z,9.20
2019-05-06T06:37:45.939Z,9.20
2019-05-06T06:40:17.689Z,9.10
2019-05-06T06:42:49.156Z,9.10
2019-05-06T06:45:18.804Z,9.20
2019-05-06T06:47:48.840Z,9.00
2019-05-06T06:50:18.482Z,9.10
2019-05-06T06:52:48.184Z,9.10
2019-05-06T06:55:18.659Z,9.10
2019-05-06T06:57:56.873Z,8.90
2019-05-06T07:00:28.161Z,9.00
2019-05-06T07:02:59.928Z,8.90
2019-05-06T07:05:34.520Z,9.00
2019-05-06T07:08:04.282Z,9.10
2019-05-06T07:10:46.000Z,9.20
2019-05-06T07:13:19.550Z,9.30
2019-05-06T07:15:49.088Z,9.30
2019-05-06T07:18:18.691Z,9.20
2019-05-06T07:21:07.718Z,9.20
2019-05-06T07:23:37.629Z,9.20
2019-05-06T07:26:08.358Z,9.20
2019-05-06T07:28:37.973Z,9.40
2019-05-06T07:31:20.730Z,9.50
2019-05-06T07:33:42.698Z,9.30
2019-05-06T07:36:13.004Z,9.60
2019-05-06T07:38:52.680Z,9.80
2019-05-06T07:41:32.505Z,9.80
2019-05-06T07:44:03.182Z,10.00
2019-05-06T07:46:34.573Z,10.00
2019-05-06T07:49:04.180Z,9.80
2019-05-06T07:51:34.002Z,10.20
2019-05-06T07:54:03.641Z,10.50
2019-05-06T07:56:33.185Z,10.50
2019-05-06T07:59:08.800Z,10.50
2019-05-06T08:01:40.308Z,10.50
2019-05-06T08:04:12.019Z,10.60
2019-05-06T08:06:42.662Z,10.70
2019-05-06T08:09:13.144Z,10.70
2019-05-06T08:11:42.981Z,10.70
2019-05-06T08:14:13.225Z,10.60
2019-05-06T08:16:44.646Z,10.70
2019-05-06T08:19:14.289Z,10.60
2019-05-06T08:21:45.826Z,10.90
2019-05-06T08:24:15.472Z,11.00
2019-05-06T08:26:45.134Z,11.10
2019-05-06T08:29:16.015Z,11.30
2019-05-06T08:31:45.822Z,11.60
2019-05-06T08:34:15.521Z,11.80
2019-05-06T08:36:46.736Z,11.50
2019-05-06T08:39:16.315Z,11.70
2019-05-06T08:41:45.957Z,11.80
2019-05-06T08:44:15.475Z,11.80
2019-05-06T08:46:45.301Z,11.90
2019-05-06T08:49:14.940Z,11.80
2019-05-06T08:51:46.183Z,11.80
2019-05-06T08:54:33.634Z,11.80
2019-05-06T08:57:03.556Z,11.60
2019-05-06T08:59:33.186Z,11.50
2019-05-06T09:02:03.844Z,11.50
2019-05-06T09:04:33.610Z,11.40
2019-05-06T09:07:03.521Z,11.30
2019-05-06T09:09:33.094Z,11.00
2019-05-06T09:12:02.881Z,11.10
2019-05-06T09:14:32.833Z,11.00
2019-05-06T09:17:02.983Z,11.00
2019-05-06T09:19:33.306Z,11.00
2019-05-06T09:22:03.384Z,10.90
2019-05-06T09:24:32.941Z,11.20
2019-05-06T09:27:06.972Z,11.40
2019-05-06T09:29:43.008Z,11.70
2019-05-06T09:32:17.137Z,12.00
2019-05-06T09:34:52.793Z,11.80
2019-05-06T09:37:23.931Z,12.00
2019-05-06T09:39:53.651Z,12.20
2019-05-06T09:42:23.417Z,12.30
2019-05-06T09:44:54.150Z,12.30
2019-05-06T09:47:32.980Z,12.40
2019-05-06T09:50:02.973Z,12.60
2019-05-06T09:52:33.286Z,12.30
2019-05-06T09:55:05.081Z,12.50
2019-05-06T09:57:36.305Z,12.30
2019-05-06T10:00:07.806Z,12.10
2019-05-06T10:02:37.480Z,12.10
2019-05-06T10:05:07.185Z,12.20
2019-05-06T10:07:36.891Z,12.40
2019-05-06T10:10:06.881Z,12.50
2019-05-06T10:12:36.500Z,12.40
2019-05-06T10:15:06.155Z,12.50
2019-05-06T10:17:35.755Z,12.50
2019-05-06T10:20:08.753Z,12.50
2019-05-06T10:22:38.337Z,12.50
2019-05-06T10:25:08.452Z,12.40
2019-05-06T10:27:39.681Z,12.50
2019-05-06T10:30:14.497Z,12.70
2019-05-06T10:32:45.724Z,12.80
2019-05-06T10:35:15.930Z,12.90
2019-05-06T10:37:56.855Z,12.90
2019-05-06T10:40:32.927Z,12.90
2019-05-06T10:43:11.512Z,13.00
2019-05-06T10:45:42.645Z,13.20
2019-05-06T10:48:12.864Z,13.30
2019-05-06T10:50:44.153Z,13.40
2019-05-06T10:53:18.139Z,13.30
2019-05-06T10:55:53.549Z,13.40
2019-05-06T10:58:23.690Z,13.60
2019-05-06T11:00:57.799Z,13.70
2019-05-06T11:03:27.894Z,13.70
2019-05-06T11:05:57.730Z,13.70
2019-05-06T11:08:27.317Z,13.50
2019-05-06T11:11:11.173Z,13.30
2019-05-06T11:13:28.272Z,13.10
2019-05-06T11:15:57.855Z,13.10
2019-05-06T11:18:27.441Z,13.10
2019-05-06T11:20:57.008Z,13.00
2019-05-06T11:23:26.603Z,13.20
2019-05-06T11:25:56.186Z,13.10
2019-05-06T11:28:43.726Z,13.10
2019-05-06T11:31:23.733Z,13.00
2019-05-06T11:34:13.482Z,13.40
2019-05-06T11:36:47.192Z,13.60
2019-05-06T11:39:26.463Z,13.80
2019-05-06T11:42:22.524Z,13.70
2019-05-06T11:44:27.369Z,13.90
2019-05-06T11:46:56.964Z,14.10
2019-05-06T11:49:39.082Z,14.20
2019-05-06T11:52:08.922Z,14.40
2019-05-06T11:54:38.505Z,14.50
2019-05-06T11:57:09.706Z,14.40
2019-05-06T11:59:39.345Z,14.30
2019-05-06T12:02:12.607Z,14.40
2019-05-06T12:04:41.985Z,14.50
2019-05-06T12:07:15.455Z,14.50
2019-05-06T12:09:42.902Z,14.50
2019-05-06T12:12:12.873Z,14.50
2019-05-06T12:14:43.049Z,14.40
2019-05-06T12:17:12.969Z,14.30
2019-05-06T12:19:43.373Z,14.30
2019-05-06T12:22:13.265Z,14.50
2019-05-06T12:24:43.191Z,14.40
2019-05-06T12:27:14.654Z,14.50
2019-05-06T12:29:44.243Z,14.40
2019-05-06T12:32:24.224Z,14.40
2019-05-06T12:34:53.844Z,14.30
2019-05-06T12:37:25.026Z,14.30
2019-05-06T12:39:55.508Z,14.20
2019-05-06T12:42:29.464Z,14.00
2019-05-06T12:45:03.648Z,13.60
2019-05-06T12:47:42.502Z,13.30
2019-05-06T12:50:12.177Z,13.10
2019-05-06T12:52:44.169Z,12.70
2019-05-06T12:55:21.177Z,12.40
2019-05-06T12:57:44.733Z,12.30
2019-05-06T13:00:15.451Z,12.20
2019-05-06T13:02:45.394Z,12.20
2019-05-06T13:05:15.919Z,12.10
2019-05-06T13:07:47.505Z,12.00
2019-05-06T13:10:19.273Z,12.00
2019-05-06T13:12:50.435Z,11.90
2019-05-06T13:15:20.238Z,11.80
2019-05-06T13:17:49.997Z,11.60
2019-05-06T13:20:22.577Z,11.40
2019-05-06T13:22:58.495Z,11.20
2019-05-06T13:25:28.220Z,11.10
2019-05-06T13:27:57.704Z,11.00
2019-05-06T13:30:27.285Z,11.00
2019-05-06T13:32:58.684Z,11.10
2019-05-06T13:35:28.488Z,11.10
2019-05-06T13:37:58.066Z,11.10
2019-05-06T13:40:27.625Z,11.00
2019-05-06T13:43:13.127Z,10.60
2019-05-06T13:45:43.822Z,10.40
2019-05-06T13:48:26.947Z,10.50
2019-05-06T13:50:58.232Z,10.50
2019-05-06T13:53:39.005Z,10.80
2019-05-06T13:56:01.910Z,11.00
2019-05-06T13:58:32.352Z,11.10
2019-05-06T14:01:03.378Z,11.30
2019-05-06T14:03:33.083Z,11.40
2019-05-06T14:06:22.020Z,11.50
2019-05-06T14:08:52.966Z,11.70
2019-05-06T14:11:23.192Z,11.80
2019-05-06T14:13:53.023Z,12.00
2019-05-06T14:16:24.625Z,11.90
2019-05-06T14:18:54.112Z,11.90
2019-05-06T14:21:23.605Z,11.80
2019-05-06T14:23:53.653Z,11.90
2019-05-06T14:26:44.826Z,11.80
2019-05-06T14:29:15.976Z,11.80
2019-05-06T14:31:47.223Z,11.80
2019-05-06T14:34:16.857Z,11.80
2019-05-06T14:36:46.434Z,11.60
2019-05-06T14:39:17.934Z,11.60
2019-05-06T14:41:49.622Z,11.20
2019-05-06T14:44:19.145Z,11.20
2019-05-06T14:46:50.439Z,11.10
2019-05-06T14:49:22.387Z,11.30
2019-05-06T14:51:53.501Z,11.60
2019-05-06T14:54:22.567Z,11.70
2019-05-06T14:57:02.507Z,11.80
2019-05-06T14:59:32.982Z,11.60
2019-05-06T15:02:02.781Z,11.80
2019-05-06T15:04:32.757Z,11.70
2019-05-06T15:07:02.327Z,11.70
2019-05-06T15:09:33.069Z,11.70
2019-05-06T15:12:02.734Z,11.90
2019-05-06T15:14:33.094Z,12.40
2019-05-06T15:17:02.828Z,12.70
2019-05-06T15:19:32.410Z,13.00
2019-05-06T15:22:02.325Z,12.90
2019-05-06T15:24:31.963Z,13.20
2019-05-06T15:27:02.730Z,13.40
2019-05-06T15:29:32.412Z,12.90
2019-05-06T15:32:09.593Z,12.90
2019-05-06T15:34:46.666Z,12.80
2019-05-06T15:37:28.327Z,12.70
2019-05-06T15:39:57.927Z,12.80
2019-05-06T15:42:29.169Z,12.70
2019-05-06T15:44:59.016Z,12.60
2019-05-06T15:47:28.578Z,12.50
2019-05-06T15:49:58.146Z,12.70
2019-05-06T15:52:27.773Z,12.60
2019-05-06T15:54:57.502Z,12.90
2019-05-06T15:57:27.097Z,13.00
2019-05-06T15:59:56.762Z,12.90
2019-05-06T16:02:26.377Z,12.90
2019-05-06T16:04:55.982Z,12.90
2019-05-06T16:07:26.288Z,12.70
2019-05-06T16:09:55.881Z,12.70
2019-05-06T16:12:25.373Z,12.70
2019-05-06T16:14:54.967Z,12.50
2019-05-06T16:17:24.538Z,12.60
2019-05-06T16:19:54.100Z,12.60
2019-05-06T16:22:23.671Z,12.70
2019-05-06T16:25:04.180Z,12.70
2019-05-06T16:27:33.772Z,12.60
2019-05-06T16:30:04.834Z,12.80
2019-05-06T16:32:34.459Z,12.80
2019-05-06T16:35:05.225Z,12.80
2019-05-06T16:37:34.861Z,13.00
2019-05-06T16:40:05.732Z,13.10
2019-05-06T16:42:35.662Z,13.30
2019-05-06T16:45:08.597Z,13.50
2019-05-06T16:47:39.070Z,13.50
2019-05-06T16:50:12.999Z,13.50
2019-05-06T16:52:44.905Z,13.50
2019-05-06T16:55:15.773Z,13.90
2019-05-06T16:57:55.886Z,14.10
2019-05-06T17:00:27.248Z,14.20
2019-05-06T17:03:16.761Z,14.10
2019-05-06T17:06:03.123Z,14.10
2019-05-06T17:08:33.321Z,14.30
2019-05-06T17:11:04.784Z,14.30
2019-05-06T17:13:37.735Z,14.10
2019-05-06T17:16:06.218Z,14.00
2019-05-06T17:18:35.755Z,14.10
2019-05-06T17:21:05.675Z,14.10
2019-05-06T17:23:35.540Z,14.00
2019-05-06T17:26:05.341Z,13.90
2019-05-06T17:28:38.004Z,13.50
2019-05-06T17:31:13.252Z,13.30
2019-05-06T17:33:44.492Z,13.40
2019-05-06T17:36:15.777Z,13.50
2019-05-06T17:38:46.985Z,13.40
2019-05-06T17:41:16.870Z,13.50
2019-05-06T17:43:46.441Z,13.60
2019-05-06T17:46:23.475Z,13.40
2019-05-06T17:49:02.251Z,13.30
2019-05-06T17:51:51.970Z,13.20
2019-05-06T17:54:24.081Z,13.30
2019-05-06T17:56:53.037Z,13.30
2019-05-06T17:59:22.590Z,13.20
2019-05-06T18:01:53.954Z,13.40
2019-05-06T18:04:23.601Z,13.20
2019-05-06T18:06:53.188Z,12.90
2019-05-06T18:09:22.765Z,12.80
2019-05-06T18:11:58.782Z,12.80
2019-05-06T18:14:23.582Z,12.90
2019-05-06T18:16:53.774Z,12.80
2019-05-06T18:19:23.852Z,12.70
2019-05-06T18:21:53.578Z,12.60
2019-05-06T18:24:23.213Z,12.60
2019-05-06T18:26:53.018Z,12.80
2019-05-06T18:29:22.538Z,12.80
2019-05-06T18:31:52.588Z,12.60
2019-05-06T18:34:23.220Z,12.60
2019-05-06T18:36:52.864Z,12.50
2019-05-06T18:39:22.589Z,12.70
2019-05-06T18:41:53.085Z,12.70
2019-05-06T18:44:22.938Z,12.60
2019-05-06T18:46:53.181Z,12.70
2019-05-06T18:49:23.132Z,12.40
2019-05-06T18:51:54.261Z,12.40
2019-05-06T18:54:25.750Z,12.20
2019-05-06T18:56:55.536Z,12.40
2019-05-06T18:59:25.157Z,12.60
2019-05-06T19:01:54.685Z,12.60
2019-05-06T19:04:32.974Z,12.40
2019-05-06T19:07:10.433Z,12.30
2019-05-06T19:09:34.540Z,12.30
2019-05-06T19:12:04.407Z,12.30
2019-05-06T19:14:34.033Z,12.30
2019-05-06T19:17:03.765Z,12.30
2019-05-06T19:19:34.956Z,12.20
2019-05-06T19:22:04.669Z,12.10
2019-05-06T19:24:34.402Z,12.30
2019-05-06T19:27:04.147Z,12.50
2019-05-06T19:29:33.766Z,12.40
2019-05-06T19:32:03.538Z,12.50
2019-05-06T19:34:35.231Z,12.40
2019-05-06T19:37:04.385Z,12.20
2019-05-06T19:39:34.117Z,12.30
2019-05-06T19:42:05.140Z,12.00
2019-05-06T19:44:34.882Z,12.20
2019-05-06T19:47:04.462Z,12.20
2019-05-06T19:49:34.122Z,12.00
2019-05-06T19:52:03.686Z,12.00
2019-05-06T19:54:33.348Z,12.00
2019-05-06T19:57:02.905Z,12.20
2019-05-06T19:59:33.052Z,12.30
2019-05-06T20:02:05.014Z,12.10
2019-05-06T20:04:35.479Z,12.00
2019-05-06T20:07:06.852Z,12.10
2019-05-06T20:09:38.074Z,12.30
2019-05-06T20:12:09.334Z,12.30
2019-05-06T20:14:38.922Z,12.20
2019-05-06T20:17:08.626Z,12.20
2019-05-06T20:19:38.280Z,12.20
2019-05-06T20:22:07.861Z,12.20
2019-05-06T20:24:37.467Z,12.20
2019-05-06T20:27:07.046Z,12.10
2019-05-06T20:29:38.490Z,11.90
2019-05-06T20:32:07.762Z,12.10
2019-05-06T20:34:37.657Z,12.30
2019-05-06T20:37:07.228Z,12.20
2019-05-06T20:39:36.892Z,12.10
2019-05-06T20:42:06.455Z,12.10
2019-05-06T20:44:36.103Z,12.00
2019-05-06T20:47:05.763Z,12.00
2019-05-06T20:49:35.388Z,12.00
2019-05-06T20:52:05.087Z,12.20
2019-05-06T20:54:34.653Z,12.10
2019-05-06T20:57:04.297Z,11.90
2019-05-06T20:59:33.875Z,11.80
2019-05-06T21:02:03.699Z,11.60
2019-05-06T21:04:33.284Z,11.60
2019-05-06T21:07:02.899Z,11.70
2019-05-06T21:09:32.583Z,11.80
2019-05-06T21:12:02.608Z,11.80
2019-05-06T21:14:32.419Z,11.70
2019-05-06T21:17:02.832Z,11.60
2019-05-06T21:19:33.231Z,11.50
2019-05-06T21:22:02.990Z,11.60
2019-05-06T21:24:35.744Z,11.60
2019-05-06T21:27:04.221Z,11.60
2019-05-06T21:29:33.883Z,11.60
2019-05-06T21:32:03.513Z,11.60
2019-05-06T21:34:33.086Z,11.80
2019-05-06T21:37:02.903Z,11.80
2019-05-06T21:39:33.270Z,12.00
2019-05-06T21:42:02.865Z,11.80
2019-05-06T21:44:32.601Z,11.90
2019-05-06T21:47:03.043Z,11.70
2019-05-06T21:49:32.850Z,11.70
2019-05-06T21:52:02.577Z,11.60
2019-05-06T21:54:32.874Z,11.50
2019-05-06T21:57:03.107Z,11.70
2019-05-06T21:59:33.059Z,11.70
2019-05-06T22:02:04.437Z,11.70
2019-05-06T22:04:34.016Z,11.60
2019-05-06T22:07:03.661Z,11.70
2019-05-06T22:09:33.249Z,11.80
2019-05-06T22:12:02.823Z,11.50
2019-05-06T22:14:32.647Z,11.40
2019-05-06T22:17:04.153Z,11.40
2019-05-06T22:19:34.077Z,11.50
2019-05-06T22:22:12.110Z,11.70
2019-05-06T22:24:44.211Z,11.90
2019-05-06T22:27:14.636Z,11.80
2019-05-06T22:29:44.193Z,11.70
2019-05-06T22:32:14.891Z,11.80
2019-05-06T22:34:45.171Z,11.70
2019-05-06T22:37:14.801Z,11.80
2019-05-06T22:39:44.372Z,11.80
2019-05-06T22:42:13.949Z,11.80
2019-05-06T22:44:43.437Z,11.60
2019-05-06T22:47:13.022Z,11.60
2019-05-06T22:49:42.577Z,11.60
2019-05-06T22:52:12.692Z,11.70
2019-05-06T22:54:43.333Z,11.50
2019-05-06T22:57:13.081Z,11.40
2019-05-06T22:59:42.874Z,11.40
2019-05-06T23:02:18.289Z,11.40
2019-05-06T23:04:53.086Z,11.30
2019-05-06T23:07:23.586Z,11.50
2019-05-06T23:09:53.141Z,11.50
2019-05-06T23:12:23.173Z,11.40
2019-05-06T23:14:53.049Z,11.30
2019-05-06T23:17:22.864Z,11.20
2019-05-06T23:19:52.834Z,11.30
2019-05-06T23:22:22.803Z,11.40
2019-05-06T23:24:54.165Z,11.40
2019-05-06T23:27:23.828Z,11.20
2019-05-06T23:29:56.269Z,11.00
2019-05-06T23:32:25.826Z,10.90
2019-05-06T23:34:55.386Z,11.00
2019-05-06T23:37:23.838Z,10.90
2019-05-06T23:40:33.150Z,10.80
2019-05-06T23:43:38.927Z,10.70
2019-05-06T23:46:44.963Z,10.50
2019-05-06T23:49:52.666Z,10.50
2019-05-06T23:52:58.547Z,10.50
2019-05-06T23:56:04.298Z,10.40
2019-05-06T23:58:33.867Z,10.30
